sensor_id;sensor_type;location;lat;lon;timestamp;temperature;humidity
20560;DHT22;10438;51.454;6.718;2023-04-03T00:00:28;3.10;99.90
20560;DHT22;10438;51.454;6.718;2023-04-03T00:02:54;3.10;99.90
20560;DHT22;10438;51.454;6.718;2023-04-03T00:05:19;3.10;99.90
20560;DHT22;10438;51.454;6.718;2023-04-03T00:07:45;3.20;99.90
20560;DHT22;10438;51.454;6.718;2023-04-03T00:10:10;3.20;99.90
20560;DHT22;10438;51.454;6.718;2023-04-03T00:12:36;3.20;99.90
20560;DHT22;10438;51.454;6.718;2023-04-03T00:15:01;3.20;99.90
20560;DHT22;10438;51.454;6.718;2023-04-03T00:17:27;3.30;99.90
20560;DHT22;10438;51.454;6.718;2023-04-03T00:19:53;3.30;99.90
20560;DHT22;10438;51.454;6.718;2023-04-03T00:22:18;3.20;99.90
20560;DHT22;10438;51.454;6.718;2023-04-03T00:24:44;3.20;99.90
20560;DHT22;10438;51.454;6.718;2023-04-03T00:27:09;3.20;99.90
20560;DHT22;10438;51.454;6.718;2023-04-03T00:29:36;3.10;99.90
20560;DHT22;10438;51.454;6.718;2023-04-03T00:32:01;3.10;99.90
20560;DHT22;10438;51.454;6.718;2023-04-03T00:34:27;3.10;99.90
20560;DHT22;10438;51.454;6.718;2023-04-03T00:36:53;3.00;99.90
20560;DHT22;10438;51.454;6.718;2023-04-03T00:39:19;3.00;99.90
20560;DHT22;10438;51.454;6.718;2023-04-03T00:41:44;3.00;99.90
20560;DHT22;10438;51.454;6.718;2023-04-03T00:47:11;3.00;99.90
20560;DHT22;10438;51.454;6.718;2023-04-03T00:49:38;3.00;99.90
20560;DHT22;10438;51.454;6.718;2023-04-03T00:52:07;3.00;99.90
20560;DHT22;10438;51.454;6.718;2023-04-03T00:54:36;3.00;99.90
20560;DHT22;10438;51.454;6.718;2023-04-03T00:57:03;3.00;99.90
20560;DHT22;10438;51.454;6.718;2023-04-03T00:59:33;3.00;99.90
20560;DHT22;10438;51.454;6.718;2023-04-03T01:02:00;3.00;99.90
20560;DHT22;10438;51.454;6.718;2023-04-03T01:04:29;3.00;99.90
20560;DHT22;10438;51.454;6.718;2023-04-03T01:06:58;3.00;99.90
20560;DHT22;10438;51.454;6.718;2023-04-03T01:09:25;3.00;99.90
20560;DHT22;10438;51.454;6.718;2023-04-03T01:11:51;2.90;99.90
20560;DHT22;10438;51.454;6.718;2023-04-03T01:14:17;3.00;99.90
20560;DHT22;10438;51.454;6.718;2023-04-03T01:16:42;3.00;99.90
20560;DHT22;10438;51.454;6.718;2023-04-03T01:19:12;3.00;99.90
20560;DHT22;10438;51.454;6.718;2023-04-03T01:22:05;3.00;99.90
20560;DHT22;10438;51.454;6.718;2023-04-03T01:24:37;2.90;99.90
20560;DHT22;10438;51.454;6.718;2023-04-03T01:27:06;3.00;99.90
20560;DHT22;10438;51.454;6.718;2023-04-03T01:29:32;3.00;99.90
20560;DHT22;10438;51.454;6.718;2023-04-03T01:31:59;3.00;99.90
20560;DHT22;10438;51.454;6.718;2023-04-03T01:34:27;3.20;99.90
20560;DHT22;10438;51.454;6.718;2023-04-03T01:36:53;3.20;99.90
20560;DHT22;10438;51.454;6.718;2023-04-03T01:39:19;3.30;99.90
20560;DHT22;10438;51.454;6.718;2023-04-03T01:41:45;3.30;99.90
20560;DHT22;10438;51.454;6.718;2023-04-03T01:44:11;3.40;99.90
20560;DHT22;10438;51.454;6.718;2023-04-03T01:46:36;3.40;99.90
20560;DHT22;10438;51.454;6.718;2023-04-03T01:49:03;3.50;99.90
20560;DHT22;10438;51.454;6.718;2023-04-03T01:51:29;3.40;99.90
20560;DHT22;10438;51.454;6.718;2023-04-03T01:53:55;3.40;99.90
20560;DHT22;10438;51.454;6.718;2023-04-03T01:56:20;3.40;99.90
20560;DHT22;10438;51.454;6.718;2023-04-03T01:58:48;3.40;99.90
20560;DHT22;10438;51.454;6.718;2023-04-03T02:01:14;3.40;99.90
20560;DHT22;10438;51.454;6.718;2023-04-03T02:03:40;3.40;99.90
20560;DHT22;10438;51.454;6.718;2023-04-03T02:06:06;3.40;99.90
20560;DHT22;10438;51.454;6.718;2023-04-03T02:08:31;3.40;99.90
20560;DHT22;10438;51.454;6.718;2023-04-03T02:10:57;3.40;99.90
20560;DHT22;10438;51.454;6.718;2023-04-03T02:13:22;3.40;99.90
20560;DHT22;10438;51.454;6.718;2023-04-03T02:15:48;3.40;99.90
20560;DHT22;10438;51.454;6.718;2023-04-03T02:18:14;3.30;99.90
20560;DHT22;10438;51.454;6.718;2023-04-03T02:20:40;3.40;99.90
20560;DHT22;10438;51.454;6.718;2023-04-03T02:23:06;3.40;99.90
20560;DHT22;10438;51.454;6.718;2023-04-03T02:25:32;3.30;99.90
20560;DHT22;10438;51.454;6.718;2023-04-03T02:27:58;3.30;99.90
20560;DHT22;10438;51.454;6.718;2023-04-03T02:30:24;3.30;99.90
20560;DHT22;10438;51.454;6.718;2023-04-03T02:32:50;3.30;99.90
20560;DHT22;10438;51.454;6.718;2023-04-03T02:35:15;3.30;99.90
20560;DHT22;10438;51.454;6.718;2023-04-03T02:37:41;3.20;99.90
20560;DHT22;10438;51.454;6.718;2023-04-03T02:40:08;3.20;99.90
20560;DHT22;10438;51.454;6.718;2023-04-03T02:42:34;3.20;99.90
20560;DHT22;10438;51.454;6.718;2023-04-03T02:44:59;3.20;99.90
20560;DHT22;10438;51.454;6.718;2023-04-03T02:47:26;3.20;99.90
20560;DHT22;10438;51.454;6.718;2023-04-03T02:49:52;3.20;99.90
20560;DHT22;10438;51.454;6.718;2023-04-03T02:52:18;3.10;99.90
20560;DHT22;10438;51.454;6.718;2023-04-03T02:54:43;3.10;99.90
20560;DHT22;10438;51.454;6.718;2023-04-03T02:57:09;3.20;99.90
20560;DHT22;10438;51.454;6.718;2023-04-03T02:59:38;3.20;99.90
20560;DHT22;10438;51.454;6.718;2023-04-03T03:02:08;3.20;99.90
20560;DHT22;10438;51.454;6.718;2023-04-03T03:04:33;3.10;99.90
20560;DHT22;10438;51.454;6.718;2023-04-03T03:06:59;3.20;99.90
20560;DHT22;10438;51.454;6.718;2023-04-03T03:09:24;3.20;99.90
20560;DHT22;10438;51.454;6.718;2023-04-03T03:11:51;3.20;99.90
20560;DHT22;10438;51.454;6.718;2023-04-03T03:14:17;3.20;99.90
20560;DHT22;10438;51.454;6.718;2023-04-03T03:16:42;3.20;99.90
20560;DHT22;10438;51.454;6.718;2023-04-03T03:19:08;3.20;99.90
20560;DHT22;10438;51.454;6.718;2023-04-03T03:21:33;3.20;99.90
20560;DHT22;10438;51.454;6.718;2023-04-03T03:23:59;3.20;99.90
20560;DHT22;10438;51.454;6.718;2023-04-03T03:26:25;3.20;99.90
20560;DHT22;10438;51.454;6.718;2023-04-03T03:28:50;3.10;99.90
20560;DHT22;10438;51.454;6.718;2023-04-03T03:31:16;3.10;99.90
20560;DHT22;10438;51.454;6.718;2023-04-03T03:33:41;3.10;99.90
20560;DHT22;10438;51.454;6.718;2023-04-03T03:36:07;3.00;99.90
20560;DHT22;10438;51.454;6.718;2023-04-03T03:38:33;3.00;99.90
20560;DHT22;10438;51.454;6.718;2023-04-03T03:40:58;3.00;99.90
20560;DHT22;10438;51.454;6.718;2023-04-03T03:43:24;3.00;99.90
20560;DHT22;10438;51.454;6.718;2023-04-03T03:45:53;3.00;99.90
20560;DHT22;10438;51.454;6.718;2023-04-03T03:48:20;3.00;99.90
20560;DHT22;10438;51.454;6.718;2023-04-03T03:50:47;3.00;99.90
20560;DHT22;10438;51.454;6.718;2023-04-03T03:53:12;3.00;99.90
20560;DHT22;10438;51.454;6.718;2023-04-03T03:55:38;2.90;99.90
20560;DHT22;10438;51.454;6.718;2023-04-03T03:58:03;2.90;99.90
20560;DHT22;10438;51.454;6.718;2023-04-03T04:00:29;2.90;99.90
20560;DHT22;10438;51.454;6.718;2023-04-03T04:02:55;2.90;99.90
20560;DHT22;10438;51.454;6.718;2023-04-03T04:05:21;2.90;99.90
20560;DHT22;10438;51.454;6.718;2023-04-03T04:07:47;2.80;99.90
20560;DHT22;10438;51.454;6.718;2023-04-03T04:10:12;2.80;99.90
20560;DHT22;10438;51.454;6.718;2023-04-03T04:12:39;2.80;99.90
20560;DHT22;10438;51.454;6.718;2023-04-03T04:15:04;2.80;99.90
20560;DHT22;10438;51.454;6.718;2023-04-03T04:17:30;2.80;99.90
20560;DHT22;10438;51.454;6.718;2023-04-03T04:19:56;2.80;99.90
20560;DHT22;10438;51.454;6.718;2023-04-03T04:22:21;2.80;99.90
20560;DHT22;10438;51.454;6.718;2023-04-03T04:24:47;2.80;99.90
20560;DHT22;10438;51.454;6.718;2023-04-03T04:27:12;2.80;99.90
20560;DHT22;10438;51.454;6.718;2023-04-03T04:29:38;2.80;99.90
20560;DHT22;10438;51.454;6.718;2023-04-03T04:32:04;2.80;99.90
20560;DHT22;10438;51.454;6.718;2023-04-03T04:34:30;2.80;99.90
20560;DHT22;10438;51.454;6.718;2023-04-03T04:36:56;2.80;99.90
20560;DHT22;10438;51.454;6.718;2023-04-03T04:39:21;2.80;99.90
20560;DHT22;10438;51.454;6.718;2023-04-03T04:41:47;2.80;99.90
20560;DHT22;10438;51.454;6.718;2023-04-03T04:44:12;2.70;99.90
20560;DHT22;10438;51.454;6.718;2023-04-03T04:46:38;2.80;99.90
20560;DHT22;10438;51.454;6.718;2023-04-03T04:49:03;2.70;99.90
20560;DHT22;10438;51.454;6.718;2023-04-03T04:51:29;2.70;99.90
20560;DHT22;10438;51.454;6.718;2023-04-03T04:53:55;2.70;99.90
20560;DHT22;10438;51.454;6.718;2023-04-03T04:56:20;2.70;99.90
20560;DHT22;10438;51.454;6.718;2023-04-03T04:58:46;2.70;99.90
20560;DHT22;10438;51.454;6.718;2023-04-03T05:01:13;2.70;99.90
20560;DHT22;10438;51.454;6.718;2023-04-03T05:03:38;2.60;99.90
20560;DHT22;10438;51.454;6.718;2023-04-03T05:06:04;2.60;99.90
20560;DHT22;10438;51.454;6.718;2023-04-03T05:08:30;2.60;99.90
20560;DHT22;10438;51.454;6.718;2023-04-03T05:10:56;2.50;99.90
20560;DHT22;10438;51.454;6.718;2023-04-03T05:13:22;2.50;99.90
20560;DHT22;10438;51.454;6.718;2023-04-03T05:15:48;2.50;99.90
20560;DHT22;10438;51.454;6.718;2023-04-03T05:18:13;2.50;99.90
20560;DHT22;10438;51.454;6.718;2023-04-03T05:20:39;2.50;99.90
20560;DHT22;10438;51.454;6.718;2023-04-03T05:23:04;2.50;99.90
20560;DHT22;10438;51.454;6.718;2023-04-03T05:25:30;2.50;99.90
20560;DHT22;10438;51.454;6.718;2023-04-03T05:27:55;2.50;99.90
20560;DHT22;10438;51.454;6.718;2023-04-03T05:30:21;2.50;99.90
20560;DHT22;10438;51.454;6.718;2023-04-03T05:32:47;2.50;99.90
20560;DHT22;10438;51.454;6.718;2023-04-03T05:35:13;2.50;99.90
20560;DHT22;10438;51.454;6.718;2023-04-03T05:37:39;2.40;99.90
20560;DHT22;10438;51.454;6.718;2023-04-03T05:40:05;2.50;99.90
20560;DHT22;10438;51.454;6.718;2023-04-03T05:42:31;2.50;99.90
20560;DHT22;10438;51.454;6.718;2023-04-03T05:44:57;2.50;99.90
20560;DHT22;10438;51.454;6.718;2023-04-03T05:47:23;2.50;99.90
20560;DHT22;10438;51.454;6.718;2023-04-03T05:49:48;2.50;99.90
20560;DHT22;10438;51.454;6.718;2023-04-03T05:52:26;2.50;99.90
20560;DHT22;10438;51.454;6.718;2023-04-03T05:54:52;2.50;99.90
20560;DHT22;10438;51.454;6.718;2023-04-03T05:57:18;2.50;99.90
20560;DHT22;10438;51.454;6.718;2023-04-03T05:59:44;2.50;99.90
20560;DHT22;10438;51.454;6.718;2023-04-03T06:02:29;2.50;99.90
20560;DHT22;10438;51.454;6.718;2023-04-03T06:04:54;2.50;99.90
20560;DHT22;10438;51.454;6.718;2023-04-03T06:07:22;2.50;99.90
20560;DHT22;10438;51.454;6.718;2023-04-03T06:09:50;2.50;99.90
20560;DHT22;10438;51.454;6.718;2023-04-03T06:12:16;2.60;99.90
20560;DHT22;10438;51.454;6.718;2023-04-03T06:14:42;2.60;99.90
20560;DHT22;10438;51.454;6.718;2023-04-03T06:17:08;2.60;99.90
20560;DHT22;10438;51.454;6.718;2023-04-03T06:19:34;2.60;99.90
20560;DHT22;10438;51.454;6.718;2023-04-03T06:22:00;2.60;99.90
20560;DHT22;10438;51.454;6.718;2023-04-03T06:24:26;2.60;99.90
20560;DHT22;10438;51.454;6.718;2023-04-03T06:26:52;2.70;99.90
20560;DHT22;10438;51.454;6.718;2023-04-03T06:29:19;2.70;99.90
20560;DHT22;10438;51.454;6.718;2023-04-03T06:31:46;2.60;99.90
20560;DHT22;10438;51.454;6.718;2023-04-03T06:34:12;2.70;99.90
20560;DHT22;10438;51.454;6.718;2023-04-03T06:36:39;2.60;99.90
20560;DHT22;10438;51.454;6.718;2023-04-03T06:39:05;2.60;99.90
20560;DHT22;10438;51.454;6.718;2023-04-03T06:41:31;2.70;99.90
20560;DHT22;10438;51.454;6.718;2023-04-03T06:43:56;2.60;99.90
20560;DHT22;10438;51.454;6.718;2023-04-03T06:46:24;2.70;99.90
20560;DHT22;10438;51.454;6.718;2023-04-03T06:48:51;2.70;99.90
20560;DHT22;10438;51.454;6.718;2023-04-03T06:51:27;2.70;99.90
20560;DHT22;10438;51.454;6.718;2023-04-03T06:53:56;2.80;99.90
20560;DHT22;10438;51.454;6.718;2023-04-03T06:56:22;2.80;99.90
20560;DHT22;10438;51.454;6.718;2023-04-03T06:58:49;2.90;99.90
20560;DHT22;10438;51.454;6.718;2023-04-03T07:01:16;2.90;99.90
20560;DHT22;10438;51.454;6.718;2023-04-03T07:03:43;2.90;99.90
20560;DHT22;10438;51.454;6.718;2023-04-03T07:06:11;2.90;99.90
20560;DHT22;10438;51.454;6.718;2023-04-03T07:08:37;3.00;99.90
20560;DHT22;10438;51.454;6.718;2023-04-03T07:11:03;3.00;99.90
20560;DHT22;10438;51.454;6.718;2023-04-03T07:13:29;3.10;99.90
20560;DHT22;10438;51.454;6.718;2023-04-03T07:15:55;3.20;99.90
20560;DHT22;10438;51.454;6.718;2023-04-03T07:18:20;3.30;99.90
20560;DHT22;10438;51.454;6.718;2023-04-03T07:20:46;3.30;99.90
20560;DHT22;10438;51.454;6.718;2023-04-03T07:23:12;3.50;99.90
20560;DHT22;10438;51.454;6.718;2023-04-03T07:25:45;3.60;99.90
20560;DHT22;10438;51.454;6.718;2023-04-03T07:28:12;3.70;99.90
20560;DHT22;10438;51.454;6.718;2023-04-03T07:30:52;3.80;99.90
20560;DHT22;10438;51.454;6.718;2023-04-03T07:33:19;3.90;99.90
20560;DHT22;10438;51.454;6.718;2023-04-03T07:35:45;4.00;99.90
20560;DHT22;10438;51.454;6.718;2023-04-03T07:38:11;4.10;99.90
20560;DHT22;10438;51.454;6.718;2023-04-03T07:40:37;4.20;99.90
20560;DHT22;10438;51.454;6.718;2023-04-03T07:43:04;4.40;99.90
20560;DHT22;10438;51.454;6.718;2023-04-03T07:45:31;4.50;99.90
20560;DHT22;10438;51.454;6.718;2023-04-03T07:47:56;4.70;99.90
20560;DHT22;10438;51.454;6.718;2023-04-03T07:50:22;4.70;99.90
20560;DHT22;10438;51.454;6.718;2023-04-03T07:52:48;4.70;99.90
20560;DHT22;10438;51.454;6.718;2023-04-03T07:55:14;4.80;99.90
20560;DHT22;10438;51.454;6.718;2023-04-03T07:57:40;4.80;99.90
20560;DHT22;10438;51.454;6.718;2023-04-03T08:00:07;5.00;99.90
20560;DHT22;10438;51.454;6.718;2023-04-03T08:02:32;5.00;99.90
20560;DHT22;10438;51.454;6.718;2023-04-03T08:04:58;5.10;99.90
20560;DHT22;10438;51.454;6.718;2023-04-03T08:07:24;5.30;99.90
20560;DHT22;10438;51.454;6.718;2023-04-03T08:09:50;5.30;99.90
20560;DHT22;10438;51.454;6.718;2023-04-03T08:12:16;5.50;99.90
20560;DHT22;10438;51.454;6.718;2023-04-03T08:14:42;5.80;99.90
20560;DHT22;10438;51.454;6.718;2023-04-03T08:17:08;6.10;95.50
20560;DHT22;10438;51.454;6.718;2023-04-03T08:19:38;6.30;88.40
20560;DHT22;10438;51.454;6.718;2023-04-03T08:22:03;6.60;86.60
20560;DHT22;10438;51.454;6.718;2023-04-03T08:24:33;6.70;73.00
20560;DHT22;10438;51.454;6.718;2023-04-03T08:26:59;6.70;48.60
20560;DHT22;10438;51.454;6.718;2023-04-03T08:29:26;6.90;71.50
20560;DHT22;10438;51.454;6.718;2023-04-03T08:31:52;6.70;39.30
20560;DHT22;10438;51.454;6.718;2023-04-03T08:34:18;7.00;39.30
20560;DHT22;10438;51.454;6.718;2023-04-03T08:36:44;7.00;37.00
20560;DHT22;10438;51.454;6.718;2023-04-03T08:39:10;7.20;41.50
20560;DHT22;10438;51.454;6.718;2023-04-03T08:41:38;7.20;34.30
20560;DHT22;10438;51.454;6.718;2023-04-03T08:49:42;7.20;6.10
20560;DHT22;10438;51.454;6.718;2023-04-03T08:52:23;7.00;8.20
20560;DHT22;10438;51.454;6.718;2023-04-03T08:55:01;7.10;11.30
20560;DHT22;10438;51.454;6.718;2023-04-03T08:57:30;7.30;1.00
20560;DHT22;10438;51.454;6.718;2023-04-03T09:00:02;7.50;17.70
20560;DHT22;10438;51.454;6.718;2023-04-03T09:02:34;7.90;21.70
20560;DHT22;10438;51.454;6.718;2023-04-03T09:05:16;7.80;24.00
20560;DHT22;10438;51.454;6.718;2023-04-03T09:07:47;7.90;1.60
20560;DHT22;10438;51.454;6.718;2023-04-03T09:10:22;8.00;4.40
20560;DHT22;10438;51.454;6.718;2023-04-03T09:13:13;7.90;1.00
20560;DHT22;10438;51.454;6.718;2023-04-03T09:15:46;8.00;4.20
20560;DHT22;10438;51.454;6.718;2023-04-03T09:18:20;8.00;1.00
20560;DHT22;10438;51.454;6.718;2023-04-03T09:21:20;8.20;1.00
20560;DHT22;10438;51.454;6.718;2023-04-03T09:23:52;8.00;1.00
20560;DHT22;10438;51.454;6.718;2023-04-03T09:26:30;7.70;1.00
20560;DHT22;10438;51.454;6.718;2023-04-03T09:29:02;7.80;1.00
20560;DHT22;10438;51.454;6.718;2023-04-03T09:31:39;7.50;1.00
20560;DHT22;10438;51.454;6.718;2023-04-03T09:34:13;7.40;1.00
20560;DHT22;10438;51.454;6.718;2023-04-03T09:36:49;7.70;1.00
20560;DHT22;10438;51.454;6.718;2023-04-03T09:39:27;7.90;1.00
20560;DHT22;10438;51.454;6.718;2023-04-03T09:46:57;8.00;1.00
20560;DHT22;10438;51.454;6.718;2023-04-03T09:49:23;8.20;1.00
20560;DHT22;10438;51.454;6.718;2023-04-03T09:51:49;8.70;1.00
20560;DHT22;10438;51.454;6.718;2023-04-03T09:54:37;8.60;1.00
20560;DHT22;10438;51.454;6.718;2023-04-03T09:57:08;8.50;1.00
20560;DHT22;10438;51.454;6.718;2023-04-03T09:59:37;8.30;1.00
20560;DHT22;10438;51.454;6.718;2023-04-03T10:02:21;8.50;1.00
20560;DHT22;10438;51.454;6.718;2023-04-03T10:04:48;8.00;1.00
20560;DHT22;10438;51.454;6.718;2023-04-03T10:09:58;8.40;1.00
20560;DHT22;10438;51.454;6.718;2023-04-03T10:12:24;8.50;1.00
20560;DHT22;10438;51.454;6.718;2023-04-03T10:17:48;8.70;1.00
20560;DHT22;10438;51.454;6.718;2023-04-03T10:29:00;9.30;1.00
20560;DHT22;10438;51.454;6.718;2023-04-03T10:34:00;9.80;1.00
20560;DHT22;10438;51.454;6.718;2023-04-03T10:36:49;9.80;1.00
20560;DHT22;10438;51.454;6.718;2023-04-03T10:42:06;9.70;1.00
20560;DHT22;10438;51.454;6.718;2023-04-03T10:45:01;9.50;1.00
20560;DHT22;10438;51.454;6.718;2023-04-03T10:53:11;9.80;1.00
20560;DHT22;10438;51.454;6.718;2023-04-03T10:55:49;9.90;1.00
20560;DHT22;10438;51.454;6.718;2023-04-03T10:58:24;10.00;1.00
20560;DHT22;10438;51.454;6.718;2023-04-03T11:00:52;10.50;1.00
20560;DHT22;10438;51.454;6.718;2023-04-03T11:03:38;10.80;1.00
20560;DHT22;10438;51.454;6.718;2023-04-03T11:06:09;10.30;1.00
20560;DHT22;10438;51.454;6.718;2023-04-03T11:08:45;10.20;1.00
20560;DHT22;10438;51.454;6.718;2023-04-03T11:11:16;10.50;1.00
20560;DHT22;10438;51.454;6.718;2023-04-03T11:13:57;10.60;1.00
20560;DHT22;10438;51.454;6.718;2023-04-03T11:16:28;10.70;1.00
20560;DHT22;10438;51.454;6.718;2023-04-03T11:18:59;10.80;1.00
20560;DHT22;10438;51.454;6.718;2023-04-03T11:21:34;10.40;1.00
20560;DHT22;10438;51.454;6.718;2023-04-03T11:24:05;10.10;1.00
20560;DHT22;10438;51.454;6.718;2023-04-03T11:26:40;10.30;1.00
20560;DHT22;10438;51.454;6.718;2023-04-03T11:29:14;10.20;1.00
20560;DHT22;10438;51.454;6.718;2023-04-03T11:32:13;10.50;1.00
20560;DHT22;10438;51.454;6.718;2023-04-03T11:34:49;10.20;1.00
20560;DHT22;10438;51.454;6.718;2023-04-03T11:37:29;10.30;1.00
20560;DHT22;10438;51.454;6.718;2023-04-03T11:40:04;10.20;1.00
20560;DHT22;10438;51.454;6.718;2023-04-03T11:42:38;10.10;1.00
20560;DHT22;10438;51.454;6.718;2023-04-03T12:00:50;9.90;1.00
20560;DHT22;10438;51.454;6.718;2023-04-03T12:03:35;10.10;1.00
20560;DHT22;10438;51.454;6.718;2023-04-03T12:08:52;10.20;1.00
20560;DHT22;10438;51.454;6.718;2023-04-03T12:11:30;10.50;1.00
20560;DHT22;10438;51.454;6.718;2023-04-03T12:16:29;10.30;1.00
20560;DHT22;10438;51.454;6.718;2023-04-03T12:18:59;10.50;1.00
20560;DHT22;10438;51.454;6.718;2023-04-03T12:29:22;10.50;1.00
20560;DHT22;10438;51.454;6.718;2023-04-03T12:35:20;10.50;1.00
20560;DHT22;10438;51.454;6.718;2023-04-03T12:38:15;10.30;1.00
20560;DHT22;10438;51.454;6.718;2023-04-03T12:41:11;10.50;1.00
20560;DHT22;10438;51.454;6.718;2023-04-03T12:46:48;10.40;1.00
20560;DHT22;10438;51.454;6.718;2023-04-03T12:51:52;10.60;1.00
20560;DHT22;10438;51.454;6.718;2023-04-03T12:54:26;10.30;1.00
20560;DHT22;10438;51.454;6.718;2023-04-03T12:59:43;10.90;1.00
20560;DHT22;10438;51.454;6.718;2023-04-03T13:02:29;10.80;1.00
20560;DHT22;10438;51.454;6.718;2023-04-03T13:04:57;10.60;1.00
20560;DHT22;10438;51.454;6.718;2023-04-03T13:07:24;10.90;1.00
20560;DHT22;10438;51.454;6.718;2023-04-03T13:10:02;10.40;1.00
20560;DHT22;10438;51.454;6.718;2023-04-03T13:12:28;10.40;1.00
20560;DHT22;10438;51.454;6.718;2023-04-03T13:14:57;10.90;1.00
20560;DHT22;10438;51.454;6.718;2023-04-03T13:17:24;10.90;1.00
20560;DHT22;10438;51.454;6.718;2023-04-03T13:19:50;11.40;1.00
20560;DHT22;10438;51.454;6.718;2023-04-03T13:24:51;11.00;1.00
20560;DHT22;10438;51.454;6.718;2023-04-03T13:27:18;11.80;1.00
20560;DHT22;10438;51.454;6.718;2023-04-03T13:29:48;11.40;1.00
20560;DHT22;10438;51.454;6.718;2023-04-03T13:32:20;11.30;1.00
20560;DHT22;10438;51.454;6.718;2023-04-03T13:34:46;11.60;1.00
20560;DHT22;10438;51.454;6.718;2023-04-03T13:37:24;11.80;1.00
20560;DHT22;10438;51.454;6.718;2023-04-03T13:40:30;11.70;1.00
20560;DHT22;10438;51.454;6.718;2023-04-03T13:43:00;12.10;1.00
20560;DHT22;10438;51.454;6.718;2023-04-03T13:45:31;12.10;1.00
20560;DHT22;10438;51.454;6.718;2023-04-03T13:48:19;12.10;1.00
20560;DHT22;10438;51.454;6.718;2023-04-03T13:50:59;11.80;1.00
20560;DHT22;10438;51.454;6.718;2023-04-03T13:53:26;11.50;1.00
20560;DHT22;10438;51.454;6.718;2023-04-03T13:56:07;11.70;1.00
20560;DHT22;10438;51.454;6.718;2023-04-03T13:58:34;12.50;1.00
20560;DHT22;10438;51.454;6.718;2023-04-03T14:01:32;12.70;1.00
20560;DHT22;10438;51.454;6.718;2023-04-03T14:04:00;12.40;1.00
20560;DHT22;10438;51.454;6.718;2023-04-03T14:06:26;11.70;1.00
20560;DHT22;10438;51.454;6.718;2023-04-03T14:08:52;11.60;1.00
20560;DHT22;10438;51.454;6.718;2023-04-03T14:11:24;11.10;1.00
20560;DHT22;10438;51.454;6.718;2023-04-03T14:13:52;11.50;1.00
20560;DHT22;10438;51.454;6.718;2023-04-03T14:16:22;11.50;1.00
20560;DHT22;10438;51.454;6.718;2023-04-03T14:18:49;11.10;1.00
20560;DHT22;10438;51.454;6.718;2023-04-03T14:21:17;11.00;1.00
20560;DHT22;10438;51.454;6.718;2023-04-03T14:23:43;11.40;1.00
20560;DHT22;10438;51.454;6.718;2023-04-03T14:26:15;11.00;1.00
20560;DHT22;10438;51.454;6.718;2023-04-03T14:28:43;10.70;1.00
20560;DHT22;10438;51.454;6.718;2023-04-03T14:31:11;10.60;1.00
20560;DHT22;10438;51.454;6.718;2023-04-03T14:33:37;10.70;1.00
20560;DHT22;10438;51.454;6.718;2023-04-03T14:38:37;10.80;1.00
20560;DHT22;10438;51.454;6.718;2023-04-03T14:41:02;11.10;1.00
20560;DHT22;10438;51.454;6.718;2023-04-03T14:43:28;10.80;1.00
20560;DHT22;10438;51.454;6.718;2023-04-03T14:45:53;11.10;1.00
20560;DHT22;10438;51.454;6.718;2023-04-03T14:48:22;11.60;1.00
20560;DHT22;10438;51.454;6.718;2023-04-03T14:50:50;11.50;1.00
20560;DHT22;10438;51.454;6.718;2023-04-03T14:53:16;11.70;1.00
20560;DHT22;10438;51.454;6.718;2023-04-03T14:55:46;11.70;1.00
20560;DHT22;10438;51.454;6.718;2023-04-03T14:58:14;11.80;1.00
20560;DHT22;10438;51.454;6.718;2023-04-03T15:00:40;12.30;1.00
20560;DHT22;10438;51.454;6.718;2023-04-03T15:03:08;12.00;1.00
20560;DHT22;10438;51.454;6.718;2023-04-03T15:05:35;12.00;1.00
20560;DHT22;10438;51.454;6.718;2023-04-03T15:08:02;12.20;1.00
20560;DHT22;10438;51.454;6.718;2023-04-03T15:10:29;12.30;1.00
20560;DHT22;10438;51.454;6.718;2023-04-03T15:12:56;12.60;1.00
20560;DHT22;10438;51.454;6.718;2023-04-03T15:15:23;12.30;1.00
20560;DHT22;10438;51.454;6.718;2023-04-03T15:17:52;11.90;1.00
20560;DHT22;10438;51.454;6.718;2023-04-03T15:20:25;11.30;1.00
20560;DHT22;10438;51.454;6.718;2023-04-03T15:22:52;11.40;1.00
20560;DHT22;10438;51.454;6.718;2023-04-03T15:25:17;11.70;1.00
20560;DHT22;10438;51.454;6.718;2023-04-03T15:27:43;12.50;1.00
20560;DHT22;10438;51.454;6.718;2023-04-03T15:30:14;12.20;1.00
20560;DHT22;10438;51.454;6.718;2023-04-03T15:32:40;11.90;1.00
20560;DHT22;10438;51.454;6.718;2023-04-03T15:35:06;11.50;1.00
20560;DHT22;10438;51.454;6.718;2023-04-03T15:37:32;11.90;1.00
20560;DHT22;10438;51.454;6.718;2023-04-03T15:39:58;11.80;1.00
20560;DHT22;10438;51.454;6.718;2023-04-03T15:42:23;11.80;1.00
20560;DHT22;10438;51.454;6.718;2023-04-03T15:44:49;11.90;1.00
20560;DHT22;10438;51.454;6.718;2023-04-03T15:47:15;11.60;1.00
20560;DHT22;10438;51.454;6.718;2023-04-03T15:49:41;11.20;1.00
20560;DHT22;10438;51.454;6.718;2023-04-03T15:52:06;10.90;1.00
20560;DHT22;10438;51.454;6.718;2023-04-03T15:54:32;10.60;1.00
20560;DHT22;10438;51.454;6.718;2023-04-03T15:56:57;10.30;1.00
20560;DHT22;10438;51.454;6.718;2023-04-03T15:59:23;10.20;1.00
20560;DHT22;10438;51.454;6.718;2023-04-03T16:01:50;9.80;1.00
20560;DHT22;10438;51.454;6.718;2023-04-03T16:04:16;9.50;1.00
20560;DHT22;10438;51.454;6.718;2023-04-03T16:06:42;9.50;1.00
20560;DHT22;10438;51.454;6.718;2023-04-03T16:09:08;9.00;1.00
20560;DHT22;10438;51.454;6.718;2023-04-03T16:11:35;9.00;1.00
20560;DHT22;10438;51.454;6.718;2023-04-03T16:14:02;9.30;1.00
20560;DHT22;10438;51.454;6.718;2023-04-03T16:16:28;9.20;1.00
20560;DHT22;10438;51.454;6.718;2023-04-03T16:18:55;9.30;1.00
20560;DHT22;10438;51.454;6.718;2023-04-03T16:21:21;9.30;1.00
20560;DHT22;10438;51.454;6.718;2023-04-03T16:23:47;9.70;1.00
20560;DHT22;10438;51.454;6.718;2023-04-03T16:26:13;10.00;1.00
20560;DHT22;10438;51.454;6.718;2023-04-03T16:28:39;10.10;1.00
20560;DHT22;10438;51.454;6.718;2023-04-03T16:31:06;9.90;1.00
20560;DHT22;10438;51.454;6.718;2023-04-03T16:33:32;10.20;1.00
20560;DHT22;10438;51.454;6.718;2023-04-03T16:35:58;10.20;1.00
20560;DHT22;10438;51.454;6.718;2023-04-03T16:38:23;10.30;1.00
20560;DHT22;10438;51.454;6.718;2023-04-03T16:40:49;10.80;1.00
20560;DHT22;10438;51.454;6.718;2023-04-03T16:43:16;10.70;1.00
20560;DHT22;10438;51.454;6.718;2023-04-03T16:45:42;11.20;1.00
20560;DHT22;10438;51.454;6.718;2023-04-03T16:48:07;10.60;1.00
20560;DHT22;10438;51.454;6.718;2023-04-03T16:50:33;10.80;1.00
20560;DHT22;10438;51.454;6.718;2023-04-03T16:52:58;10.40;1.00
20560;DHT22;10438;51.454;6.718;2023-04-03T16:55:24;10.30;1.00
20560;DHT22;10438;51.454;6.718;2023-04-03T16:57:50;9.80;1.00
20560;DHT22;10438;51.454;6.718;2023-04-03T17:00:16;9.90;1.00
20560;DHT22;10438;51.454;6.718;2023-04-03T17:02:41;9.40;1.00
20560;DHT22;10438;51.454;6.718;2023-04-03T17:05:07;9.00;1.00
20560;DHT22;10438;51.454;6.718;2023-04-03T17:07:33;8.70;1.00
20560;DHT22;10438;51.454;6.718;2023-04-03T17:09:59;8.60;1.00
20560;DHT22;10438;51.454;6.718;2023-04-03T17:12:25;8.50;1.00
20560;DHT22;10438;51.454;6.718;2023-04-03T17:14:50;8.40;1.00
20560;DHT22;10438;51.454;6.718;2023-04-03T17:17:20;8.30;1.00
20560;DHT22;10438;51.454;6.718;2023-04-03T17:19:46;8.30;1.00